Time;durP1;ratioP1;P1;durP2;ratioP2;P2;SDS_P1;SDS_P2;PMS_P1;PMS_P2;Temp;Humidity;BMP_temperature;BMP_pressure;BME280_temperature;BME280_humidity;BME280_pressure;Samples;Min_cycle;Max_cycle;Signal;HPM_P1;HPM_P2
2023/08/25 00:00:12;;;;;;;;;;;;;;;28.48;58.19;101473.81;106766;1267;25302;-52
2023/08/25 00:02:39;;;;;;;;;;;;;;;28.47;57.91;101468.57;106725;1271;22517;-51
2023/08/25 00:05:07;;;;;;;;;;;;;;;28.46;58.14;101466.90;106683;1270;25311;-51
2023/08/25 00:07:36;;;;;;;;;;;;;;;28.44;58.18;101460.27;106752;1264;22524;-51
2023/08/25 00:10:03;;;;;;;;;;;;;;;28.43;58.12;101459.66;106954;1263;25459;-51
2023/08/25 00:12:30;;;;;;;;;;;;;;;28.41;58.12;101456.76;106748;1260;25489;-52
2023/08/25 00:14:57;;;;;;;;;;;;;;;28.40;57.99;101462.05;106753;1270;25399;-52
2023/08/25 00:17:23;;;;;;;;;;;;;;;28.38;57.80;101462.23;106576;1270;23009;-51
2023/08/25 00:19:51;;;;;;;;;;;;;;;28.36;57.52;101461.34;106663;1267;25420;-51
2023/08/25 00:22:18;;;;;;;;;;;;;;;28.33;57.33;101456.77;106712;1270;25456;-51
2023/08/25 00:24:45;;;;;;;;;;;;;;;28.30;57.16;101452.53;106778;1265;25330;-51
2023/08/25 00:27:12;;;;;;;;;;;;;;;28.29;57.16;101448.73;106876;1264;25462;-51
2023/08/25 00:29:39;;;;;;;;;;;;;;;28.29;56.74;101446.43;106751;1267;22517;-51
2023/08/25 00:32:06;;;;;;;;;;;;;;;28.30;56.76;101446.70;106813;1267;25344;-51
2023/08/25 00:34:33;;;;;;;;;;;;;;;28.30;56.68;101450.77;106513;1270;376356;-51
2023/08/25 00:37:01;;;;;;;;;;;;;;;28.30;56.81;101448.95;106767;1261;25338;-51
2023/08/25 00:39:31;;;;;;;;;;;;;;;28.31;56.45;101446.98;106623;1273;25316;-51
2023/08/25 00:41:58;;;;;;;;;;;;;;;28.30;56.44;101446.30;106815;1270;25487;-51
2023/08/25 00:44:25;;;;;;;;;;;;;;;28.31;56.49;101442.00;106831;1270;25364;-51
2023/08/25 00:46:52;;;;;;;;;;;;;;;28.30;56.37;101441.71;106514;1278;25374;-51
2023/08/25 00:49:19;;;;;;;;;;;;;;;28.29;56.34;101440.55;106793;1263;25340;-51
2023/08/25 00:51:46;;;;;;;;;;;;;;;28.28;56.29;101438.46;106818;1267;25327;-50
2023/08/25 00:54:13;;;;;;;;;;;;;;;28.26;56.23;101432.77;106866;1267;25488;-51
2023/08/25 00:56:40;;;;;;;;;;;;;;;28.23;56.21;101429.45;106789;1270;25343;-51
2023/08/25 00:59:06;;;;;;;;;;;;;;;28.20;56.31;101426.52;106794;1268;25385;-52
2023/08/25 01:01:33;;;;;;;;;;;;;;;28.17;56.30;101421.56;106685;1270;22741;-51
2023/08/25 01:04:00;;;;;;;;;;;;;;;28.15;56.45;101414.29;106814;1269;25305;-51
2023/08/25 01:06:29;;;;;;;;;;;;;;;28.13;56.73;101424.23;106633;1261;25380;-52
2023/08/25 01:08:58;;;;;;;;;;;;;;;28.09;57.12;101426.52;106608;1262;25422;-53
2023/08/25 01:11:28;;;;;;;;;;;;;;;28.04;57.19;101428.20;106659;1272;25315;-52
2023/08/25 01:13:56;;;;;;;;;;;;;;;27.99;57.59;101427.59;106680;1269;25401;-51
2023/08/25 01:16:25;;;;;;;;;;;;;;;27.93;57.91;101428.02;106644;1264;22513;-53
2023/08/25 01:18:52;;;;;;;;;;;;;;;27.90;58.61;101428.13;106865;1269;24169;-53
2023/08/25 01:21:19;;;;;;;;;;;;;;;27.87;58.89;101429.64;106766;1260;25312;-52
2023/08/25 01:23:57;;;;;;;;;;;;;;;27.84;59.09;101430.05;106750;1270;25303;-52
2023/08/25 01:26:24;;;;;;;;;;;;;;;27.83;59.24;101425.34;106783;1270;23251;-53
2023/08/25 01:28:52;;;;;;;;;;;;;;;27.82;59.39;101418.81;106706;1270;25347;-52
2023/08/25 01:31:22;;;;;;;;;;;;;;;27.82;59.67;101423.41;106780;1256;24026;-52
2023/08/25 01:33:49;;;;;;;;;;;;;;;27.84;59.91;101421.30;106870;1270;25454;-52
2023/08/25 01:36:35;;;;;;;;;;;;;;;27.86;59.92;101423.81;106732;1265;22504;-52
2023/08/25 01:39:09;;;;;;;;;;;;;;;27.89;59.82;101427.67;106790;1266;25354;-50
2023/08/25 01:41:41;;;;;;;;;;;;;;;27.90;59.83;101424.95;106744;1261;25316;-51
2023/08/25 01:44:08;;;;;;;;;;;;;;;27.90;59.84;101427.73;106668;1272;25466;-51
2023/08/25 01:46:35;;;;;;;;;;;;;;;27.91;59.70;101428.77;106771;1257;25354;-51
2023/08/25 01:49:02;;;;;;;;;;;;;;;27.92;59.83;101429.58;106640;1271;25325;-51
2023/08/25 01:51:29;;;;;;;;;;;;;;;27.94;59.79;101430.27;106835;1268;25307;-51
2023/08/25 01:53:56;;;;;;;;;;;;;;;27.97;59.76;101431.86;106737;1266;25338;-50
2023/08/25 01:56:23;;;;;;;;;;;;;;;27.99;59.63;101433.64;106863;1265;25305;-52
2023/08/25 01:58:51;;;;;;;;;;;;;;;28.00;59.63;101429.80;106777;1256;23277;-52
2023/08/25 02:01:18;;;;;;;;;;;;;;;28.02;59.53;101426.40;106737;1269;25382;-52
2023/08/25 02:03:45;;;;;;;;;;;;;;;28.05;59.41;101424.88;106756;1262;25296;-52
2023/08/25 02:06:12;;;;;;;;;;;;;;;28.08;59.37;101421.77;106605;1259;25393;-51
2023/08/25 02:08:40;;;;;;;;;;;;;;;28.11;59.22;101424.05;106814;1256;22514;-51
2023/08/25 02:11:07;;;;;;;;;;;;;;;28.11;59.34;101424.16;106738;1268;25458;-52
2023/08/25 02:13:34;;;;;;;;;;;;;;;28.12;59.20;101424.32;106755;1260;22753;-52
2023/08/25 02:16:01;;;;;;;;;;;;;;;28.13;59.06;101421.23;106632;1257;25386;-52
2023/08/25 02:18:28;;;;;;;;;;;;;;;28.14;58.97;101418.44;106813;1263;22525;-52
2023/08/25 02:20:55;;;;;;;;;;;;;;;28.15;58.97;101419.55;106791;1267;25302;-52
2023/08/25 02:23:25;;;;;;;;;;;;;;;28.16;59.03;101421.08;106788;1257;25382;-52
2023/08/25 02:25:52;;;;;;;;;;;;;;;28.15;58.89;101427.47;106774;1267;25340;-52
2023/08/25 02:28:20;;;;;;;;;;;;;;;28.12;58.89;101427.01;106818;1260;25383;-52
2023/08/25 02:30:47;;;;;;;;;;;;;;;28.10;58.91;101424.97;106827;1260;25378;-52
2023/08/25 02:33:16;;;;;;;;;;;;;;;28.09;58.93;101426.56;106767;1260;25380;-52
2023/08/25 02:35:44;;;;;;;;;;;;;;;28.08;59.05;101425.19;106884;1267;25323;-52
2023/08/25 02:38:11;;;;;;;;;;;;;;;28.08;59.01;101426.06;106822;1257;25313;-52
2023/08/25 02:40:38;;;;;;;;;;;;;;;28.09;58.86;101423.46;106793;1270;25325;-51
2023/08/25 02:43:05;;;;;;;;;;;;;;;28.11;58.65;101424.06;106753;1256;22518;-52
2023/08/25 02:45:32;;;;;;;;;;;;;;;28.13;58.69;101423.90;106792;1262;25353;-52
2023/08/25 02:47:59;;;;;;;;;;;;;;;28.13;58.51;101421.33;106838;1267;25418;-51
2023/08/25 02:50:26;;;;;;;;;;;;;;;28.20;58.44;101422.16;106759;1260;25466;-51
2023/08/25 02:52:53;;;;;;;;;;;;;;;28.21;58.39;101416.92;106795;1258;25440;-51
2023/08/25 02:55:21;;;;;;;;;;;;;;;28.20;58.10;101419.34;106794;1259;25232;-51
2023/08/25 02:57:49;;;;;;;;;;;;;;;28.18;57.94;101417.04;106796;1264;22765;-51
2023/08/25 03:00:20;;;;;;;;;;;;;;;28.15;57.85;101412.59;106743;1272;25383;-52
2023/08/25 03:02:48;;;;;;;;;;;;;;;28.13;57.90;101417.25;106672;1262;25333;-52
2023/08/25 03:05:17;;;;;;;;;;;;;;;28.11;58.09;101412.80;106851;1256;22518;-52
2023/08/25 03:07:44;;;;;;;;;;;;;;;28.08;58.13;101403.58;106812;1267;25316;-52
2023/08/25 03:10:12;;;;;;;;;;;;;;;28.07;58.01;101398.71;106771;1260;25346;-52
2023/08/25 03:12:39;;;;;;;;;;;;;;;28.04;57.96;101398.40;106761;1260;25381;-51
2023/08/25 03:15:07;;;;;;;;;;;;;;;28.03;58.20;101397.62;106730;1264;25305;-52
2023/08/25 03:17:34;;;;;;;;;;;;;;;28.01;58.55;101392.77;106306;1270;25448;-52
2023/08/25 03:20:02;;;;;;;;;;;;;;;28.00;58.76;101395.35;106332;1262;25330;-52
2023/08/25 03:22:30;;;;;;;;;;;;;;;27.99;58.86;101393.09;106438;1259;22640;-52
2023/08/25 03:24:57;;;;;;;;;;;;;;;27.99;58.81;101390.08;106282;1270;25312;-52
2023/08/25 03:27:24;;;;;;;;;;;;;;;27.98;58.86;101382.38;106566;1268;25519;-51
2023/08/25 03:29:51;;;;;;;;;;;;;;;27.96;58.84;101380.71;106809;1266;25305;-51
2023/08/25 03:32:18;;;;;;;;;;;;;;;27.96;58.95;101380.58;106801;1266;25313;-51
2023/08/25 03:34:45;;;;;;;;;;;;;;;27.95;59.00;101377.61;106776;1259;25391;-51
2023/08/25 03:37:12;;;;;;;;;;;;;;;27.94;59.00;101375.54;106784;1264;25485;-52
2023/08/25 03:39:39;;;;;;;;;;;;;;;27.93;58.88;101379.86;106800;1262;22634;-52
2023/08/25 03:42:06;;;;;;;;;;;;;;;27.93;59.08;101387.02;106696;1272;24206;-51
2023/08/25 03:44:33;;;;;;;;;;;;;;;27.94;59.28;101387.70;106792;1267;25315;-52
2023/08/25 03:47:00;;;;;;;;;;;;;;;27.93;59.35;101390.23;106624;1262;25465;-54
2023/08/25 03:49:32;;;;;;;;;;;;;;;27.94;59.51;101398.40;106837;1256;25334;-52
2023/08/25 03:51:59;;;;;;;;;;;;;;;27.94;59.66;101399.58;106776;1266;25382;-52
2023/08/25 03:54:31;;;;;;;;;;;;;;;27.95;59.75;101400.75;106816;1256;25379;-51
2023/08/25 03:56:58;;;;;;;;;;;;;;;27.96;59.84;101398.90;106668;1270;25434;-52
2023/08/25 03:59:25;;;;;;;;;;;;;;;27.98;59.98;101398.92;106869;1270;25765;-52
2023/08/25 04:01:52;;;;;;;;;;;;;;;28.01;60.19;101396.57;106775;1265;25437;-52
2023/08/25 04:04:19;;;;;;;;;;;;;;;28.02;60.23;101400.88;106797;1269;25372;-51
2023/08/25 04:06:45;;;;;;;;;;;;;;;28.04;60.23;101403.24;106708;1263;25333;-52
2023/08/25 04:09:13;;;;;;;;;;;;;;;28.07;60.33;101412.41;106610;1268;22511;-51
2023/08/25 04:11:40;;;;;;;;;;;;;;;28.10;60.21;101415.37;106852;1264;25456;-52
2023/08/25 04:14:07;;;;;;;;;;;;;;;28.12;60.37;101418.79;106898;1267;25389;-52
2023/08/25 04:16:35;;;;;;;;;;;;;;;28.15;60.33;101428.85;106827;1263;23290;-52
2023/08/25 04:19:02;;;;;;;;;;;;;;;28.19;60.53;101426.21;106674;1269;24211;-52
2023/08/25 04:21:32;;;;;;;;;;;;;;;28.22;60.53;101425.58;106378;1278;25369;-52
2023/08/25 04:23:59;;;;;;;;;;;;;;;28.26;60.49;101429.03;106887;1259;25462;-52
2023/08/25 04:26:25;;;;;;;;;;;;;;;28.29;60.57;101431.95;106595;1269;25198;-51
2023/08/25 04:28:52;;;;;;;;;;;;;;;28.32;60.40;101433.61;106857;1267;23264;-52
2023/08/25 04:31:20;;;;;;;;;;;;;;;28.35;60.42;101433.72;106869;1268;25382;-51
2023/08/25 04:33:53;;;;;;;;;;;;;;;28.38;60.50;101434.92;106747;1261;25510;-51
2023/08/25 04:36:20;;;;;;;;;;;;;;;28.40;60.25;101439.88;106585;1270;25433;-51
2023/08/25 04:38:48;;;;;;;;;;;;;;;28.44;60.41;101439.91;106790;1266;25503;-51
2023/08/25 04:41:15;;;;;;;;;;;;;;;28.48;60.35;101443.83;106869;1268;25379;-51
2023/08/25 04:43:42;;;;;;;;;;;;;;;28.52;60.70;101449.05;106745;1270;25352;-52
2023/08/25 04:46:09;;;;;;;;;;;;;;;28.56;61.08;101457.09;106703;1260;25328;-53
2023/08/25 04:48:36;;;;;;;;;;;;;;;28.58;61.39;101466.23;106700;1261;25474;-53
2023/08/25 04:51:06;;;;;;;;;;;;;;;28.61;61.59;101470.98;106446;1269;26484;-52
2023/08/25 04:53:32;;;;;;;;;;;;;;;28.64;61.71;101467.83;106656;1268;25418;-53
2023/08/25 04:55:59;;;;;;;;;;;;;;;28.68;61.87;101475.48;106737;1256;22517;-52
2023/08/25 04:58:26;;;;;;;;;;;;;;;28.72;61.94;101480.34;106825;1267;25446;-53
2023/08/25 05:00:53;;;;;;;;;;;;;;;28.76;62.00;101483.94;106734;1266;25386;-51
2023/08/25 05:03:21;;;;;;;;;;;;;;;28.80;61.99;101494.61;106833;1267;25392;-51
2023/08/25 05:05:48;;;;;;;;;;;;;;;28.85;61.94;101501.66;106721;1269;25334;-52
2023/08/25 05:08:19;;;;;;;;;;;;;;;28.90;61.99;101502.16;106705;1262;22506;-51
2023/08/25 05:10:45;;;;;;;;;;;;;;;28.96;61.93;101503.96;106401;1268;22503;-52
2023/08/25 05:13:13;;;;;;;;;;;;;;;29.03;61.76;101507.31;106784;1266;22508;-52
2023/08/25 05:15:41;;;;;;;;;;;;;;;29.10;61.39;101507.06;106720;1256;24663;-52
2023/08/25 05:18:08;;;;;;;;;;;;;;;29.18;61.00;101508.88;106795;1269;25316;-52
2023/08/25 05:20:36;;;;;;;;;;;;;;;29.26;60.75;101514.23;106602;1256;25415;-52
2023/08/25 05:23:05;;;;;;;;;;;;;;;29.34;60.51;101517.96;106734;1259;25393;-52
2023/08/25 05:25:32;;;;;;;;;;;;;;;29.41;60.07;101520.00;106780;1267;25303;-52
2023/08/25 05:27:59;;;;;;;;;;;;;;;29.45;59.63;101521.10;106613;1262;25378;-51
2023/08/25 05:30:28;;;;;;;;;;;;;;;29.48;59.48;101524.55;106860;1266;25376;-52
2023/08/25 05:32:57;;;;;;;;;;;;;;;29.51;59.14;101523.25;106730;1267;24265;-52
2023/08/25 05:35:32;;;;;;;;;;;;;;;29.54;58.92;101527.25;106907;1269;25348;-52
2023/08/25 05:37:59;;;;;;;;;;;;;;;29.55;58.86;101533.21;106792;1260;22487;-52
2023/08/25 05:40:26;;;;;;;;;;;;;;;29.58;58.64;101534.60;106763;1259;25405;-52
2023/08/25 05:42:55;;;;;;;;;;;;;;;29.61;58.75;101538.24;106610;1275;25361;-52
2023/08/25 05:45:22;;;;;;;;;;;;;;;29.64;58.78;101538.70;106725;1267;25347;-51
2023/08/25 05:47:49;;;;;;;;;;;;;;;29.66;58.66;101541.19;106780;1261;25296;-51
2023/08/25 05:50:16;;;;;;;;;;;;;;;29.70;58.70;101544.20;106390;1275;25317;-51
2023/08/25 05:52:45;;;;;;;;;;;;;;;29.75;58.91;101546.51;106759;1272;25396;-51
2023/08/25 05:55:12;;;;;;;;;;;;;;;29.77;58.64;101546.63;106400;1278;25325;-51
2023/08/25 05:57:40;;;;;;;;;;;;;;;29.80;58.66;101550.52;106769;1267;25305;-51
2023/08/25 06:00:07;;;;;;;;;;;;;;;29.81;58.66;101548.98;106763;1265;25393;-52
2023/08/25 06:02:43;;;;;;;;;;;;;;;29.85;58.68;101551.15;106771;1260;25335;-51
2023/08/25 06:05:10;;;;;;;;;;;;;;;29.87;58.56;101551.13;106835;1259;25316;-51
2023/08/25 06:07:37;;;;;;;;;;;;;;;29.89;58.76;101551.67;106891;1257;25317;-51
2023/08/25 06:10:05;;;;;;;;;;;;;;;29.89;58.87;101551.29;106833;1259;25331;-51
2023/08/25 06:12:32;;;;;;;;;;;;;;;29.91;58.81;101554.55;106654;1270;25456;-51
2023/08/25 06:14:59;;;;;;;;;;;;;;;29.92;58.19;101554.42;106696;1267;25418;-52
2023/08/25 06:17:25;;;;;;;;;;;;;;;29.93;58.13;101556.08;106783;1259;22651;-51
2023/08/25 06:19:52;;;;;;;;;;;;;;;29.95;57.94;101554.48;106818;1264;25316;-51
2023/08/25 06:22:19;;;;;;;;;;;;;;;29.95;57.63;101559.30;106858;1262;25377;-51
2023/08/25 06:24:46;;;;;;;;;;;;;;;29.96;57.68;101560.52;106778;1268;25399;-51
2023/08/25 06:27:13;;;;;;;;;;;;;;;29.96;57.67;101557.77;106841;1260;25327;-51
2023/08/25 06:29:40;;;;;;;;;;;;;;;29.97;57.73;101555.60;106843;1265;25336;-51
2023/08/25 06:32:07;;;;;;;;;;;;;;;29.97;57.79;101555.55;106805;1259;22539;-51
2023/08/25 06:34:34;;;;;;;;;;;;;;;29.98;57.78;101558.71;106861;1259;25316;-51
2023/08/25 06:37:01;;;;;;;;;;;;;;;29.98;57.98;101563.91;106788;1259;25448;-51
2023/08/25 06:39:29;;;;;;;;;;;;;;;29.97;58.89;101561.27;106715;1266;25414;-52
2023/08/25 06:41:55;;;;;;;;;;;;;;;29.96;59.36;101559.78;106731;1270;25344;-51
2023/08/25 06:44:24;;;;;;;;;;;;;;;29.94;59.61;101560.88;106854;1270;25341;-51
2023/08/25 06:46:51;;;;;;;;;;;;;;;29.92;59.60;101558.53;106853;1267;25417;-51
2023/08/25 06:49:18;;;;;;;;;;;;;;;29.92;59.80;101558.84;106449;1278;25305;-51
2023/08/25 06:51:45;;;;;;;;;;;;;;;29.96;59.88;101557.10;106875;1268;25332;-51
2023/08/25 06:54:12;;;;;;;;;;;;;;;30.01;59.93;101562.51;106814;1259;25315;-51
2023/08/25 06:56:39;;;;;;;;;;;;;;;30.07;59.86;101562.48;106951;1258;25316;-51
2023/08/25 06:59:05;;;;;;;;;;;;;;;30.14;59.53;101563.06;106592;1268;24349;-53
2023/08/25 07:01:32;;;;;;;;;;;;;;;30.20;58.92;101562.05;106787;1260;25344;-52
2023/08/25 07:03:59;;;;;;;;;;;;;;;30.21;58.70;101560.09;106778;1267;25344;-52
2023/08/25 07:06:26;;;;;;;;;;;;;;;30.27;58.72;101555.25;106709;1266;25780;-52
2023/08/25 07:08:54;;;;;;;;;;;;;;;30.36;57.91;101548.52;106602;1271;25326;-52
2023/08/25 07:11:20;;;;;;;;;;;;;;;30.48;57.18;101545.09;106814;1259;25349;-52
2023/08/25 07:13:48;;;;;;;;;;;;;;;30.60;56.60;101544.20;106726;1268;25444;-51
2023/08/25 07:16:15;;;;;;;;;;;;;;;30.72;56.27;101543.94;106819;1259;25220;-52
2023/08/25 07:18:42;;;;;;;;;;;;;;;30.85;55.89;101539.52;106699;1258;25312;-52
2023/08/25 07:21:09;;;;;;;;;;;;;;;30.97;55.30;101533.70;106781;1260;25312;-52
2023/08/25 07:23:37;;;;;;;;;;;;;;;31.09;54.99;101534.12;106688;1262;25321;-51
2023/08/25 07:26:03;;;;;;;;;;;;;;;31.20;54.56;101538.11;106887;1261;25331;-52
2023/08/25 07:28:30;;;;;;;;;;;;;;;31.27;54.32;101542.41;106877;1272;25411;-51
2023/08/25 07:30:59;;;;;;;;;;;;;;;31.36;53.97;101546.76;106862;1263;25363;-51
2023/08/25 07:33:26;;;;;;;;;;;;;;;31.43;53.48;101551.42;106682;1259;25344;-51
2023/08/25 07:35:53;;;;;;;;;;;;;;;31.49;53.46;101550.33;106814;1267;25377;-51
2023/08/25 07:38:20;;;;;;;;;;;;;;;31.55;53.18;101553.30;106822;1268;25463;-50
2023/08/25 07:40:47;;;;;;;;;;;;;;;31.60;52.74;101549.46;106799;1257;25414;-51
2023/08/25 07:43:14;;;;;;;;;;;;;;;31.62;52.48;101554.36;106769;1260;24342;-51
2023/08/25 07:45:40;;;;;;;;;;;;;;;31.64;52.03;101556.90;106588;1270;25306;-51
2023/08/25 07:48:08;;;;;;;;;;;;;;;31.66;51.96;101557.47;106803;1262;22503;-51
2023/08/25 07:50:35;;;;;;;;;;;;;;;31.68;51.64;101553.15;106862;1260;25466;-51
2023/08/25 07:53:02;;;;;;;;;;;;;;;31.68;51.70;101555.11;106796;1267;25457;-51
2023/08/25 07:55:30;;;;;;;;;;;;;;;31.69;51.84;101560.36;106603;1272;25374;-51
2023/08/25 07:57:57;;;;;;;;;;;;;;;31.69;52.02;101561.05;106679;1261;25377;-51
2023/08/25 08:00:26;;;;;;;;;;;;;;;31.70;52.04;101556.63;106801;1262;22575;-51
2023/08/25 08:02:53;;;;;;;;;;;;;;;31.73;52.16;101554.97;106830;1269;25370;-51
2023/08/25 08:05:20;;;;;;;;;;;;;;;31.76;52.43;101556.45;106786;1267;25329;-51
2023/08/25 08:07:50;;;;;;;;;;;;;;;31.80;52.54;101561.81;106697;1268;25338;-52
2023/08/25 08:10:17;;;;;;;;;;;;;;;31.85;52.67;101563.98;106883;1256;25340;-52
2023/08/25 08:12:46;;;;;;;;;;;;;;;31.91;52.39;101564.21;106898;1268;25295;-51
2023/08/25 08:15:13;;;;;;;;;;;;;;;31.99;52.05;101569.45;106758;1266;25316;-52
2023/08/25 08:17:40;;;;;;;;;;;;;;;32.05;51.63;101570.71;106736;1261;25316;-50
2023/08/25 08:20:12;;;;;;;;;;;;;;;32.13;51.39;101576.98;106749;1264;25469;-53
2023/08/25 08:22:40;;;;;;;;;;;;;;;32.22;51.05;101578.65;106712;1267;22524;-52
2023/08/25 08:25:10;;;;;;;;;;;;;;;32.30;50.20;101574.79;106504;1266;22508;-52
2023/08/25 08:27:39;;;;;;;;;;;;;;;32.38;49.88;101579.45;106645;1264;22514;-52
2023/08/25 08:30:06;;;;;;;;;;;;;;;32.49;49.67;101579.71;106735;1259;25319;-52
2023/08/25 08:32:37;;;;;;;;;;;;;;;32.56;48.95;101576.98;106884;1260;25377;-52
2023/08/25 08:35:08;;;;;;;;;;;;;;;32.59;48.29;101567.35;106679;1278;25312;-50
2023/08/25 08:37:35;;;;;;;;;;;;;;;32.58;48.09;101565.99;106753;1270;25455;-51
2023/08/25 08:40:05;;;;;;;;;;;;;;;32.56;48.14;101566.95;106820;1259;25344;-49
2023/08/25 08:42:32;;;;;;;;;;;;;;;32.54;48.02;101563.20;106700;1262;25354;-51
2023/08/25 08:45:03;;;;;;;;;;;;;;;32.54;48.06;101566.77;106726;1268;25377;-51
2023/08/25 08:47:32;;;;;;;;;;;;;;;32.55;48.32;101567.05;106609;1278;25383;-51
2023/08/25 08:49:59;;;;;;;;;;;;;;;32.56;48.02;101566.95;106747;1269;25343;-51
2023/08/25 08:52:27;;;;;;;;;;;;;;;32.58;47.63;101564.95;106823;1259;25334;-51
2023/08/25 08:54:57;;;;;;;;;;;;;;;32.59;47.52;101571.26;106751;1260;25456;-52
2023/08/25 08:57:24;;;;;;;;;;;;;;;32.61;47.64;101576.30;106714;1271;25344;-51
2023/08/25 08:59:54;;;;;;;;;;;;;;;32.63;47.92;101572.98;106785;1268;25343;-51
2023/08/25 09:02:21;;;;;;;;;;;;;;;32.66;48.12;101570.34;106771;1256;25331;-51
2023/08/25 09:04:50;;;;;;;;;;;;;;;32.71;48.11;101570.59;106688;1270;25342;-51
2023/08/25 09:07:17;;;;;;;;;;;;;;;32.75;47.97;101566.56;106804;1267;22520;-51
2023/08/25 09:09:45;;;;;;;;;;;;;;;32.78;48.09;101566.56;106845;1267;25405;-51
2023/08/25 09:12:17;;;;;;;;;;;;;;;32.82;47.71;101572.95;106871;1268;25393;-52
2023/08/25 09:14:45;;;;;;;;;;;;;;;32.85;47.37;101571.02;106756;1264;22510;-51
2023/08/25 09:17:12;;;;;;;;;;;;;;;32.88;46.99;101572.23;106705;1260;25350;-52
2023/08/25 09:19:39;;;;;;;;;;;;;;;32.88;47.00;101572.93;106813;1259;24263;-51
2023/08/25 09:22:07;;;;;;;;;;;;;;;32.89;46.83;101570.52;106789;1267;25393;-51
2023/08/25 09:24:34;;;;;;;;;;;;;;;32.89;46.78;101570.29;106517;1272;25383;-51
2023/08/25 09:27:01;;;;;;;;;;;;;;;32.91;46.50;101564.91;106652;1266;22521;-52
2023/08/25 09:29:48;;;;;;;;;;;;;;;32.91;46.38;101566.89;106721;1265;22917;-51
2023/08/25 09:32:15;;;;;;;;;;;;;;;32.92;46.72;101563.73;106712;1272;25334;-51
2023/08/25 09:34:42;;;;;;;;;;;;;;;32.92;46.84;101562.77;106681;1263;25459;-51
2023/08/25 09:37:09;;;;;;;;;;;;;;;32.92;46.96;101563.90;106776;1261;24028;-52
2023/08/25 09:39:45;;;;;;;;;;;;;;;32.93;46.97;101558.42;106662;1260;25441;-51
2023/08/25 09:42:12;;;;;;;;;;;;;;;32.92;46.98;101556.66;106760;1272;25309;-52
2023/08/25 09:44:39;;;;;;;;;;;;;;;32.92;47.22;101552.88;106683;1269;25338;-52
2023/08/25 09:47:09;;;;;;;;;;;;;;;32.94;47.27;101550.57;106615;1270;25337;-52
2023/08/25 09:49:40;;;;;;;;;;;;;;;32.96;47.19;101553.55;106705;1269;25479;-51
2023/08/25 09:52:07;;;;;;;;;;;;;;;33.00;47.17;101557.00;106681;1271;22508;-51
2023/08/25 09:54:34;;;;;;;;;;;;;;;33.02;47.03;101554.42;106704;1266;25399;-52
2023/08/25 09:57:02;;;;;;;;;;;;;;;33.03;46.94;101550.18;106788;1262;25344;-51
2023/08/25 09:59:29;;;;;;;;;;;;;;;33.02;47.00;101551.19;106766;1270;25347;-51
2023/08/25 10:01:57;;;;;;;;;;;;;;;33.00;46.95;101556.95;106842;1256;25504;-51
2023/08/25 10:04:24;;;;;;;;;;;;;;;32.98;47.07;101554.66;106866;1259;25320;-51
2023/08/25 10:06:51;;;;;;;;;;;;;;;32.97;47.22;101552.41;106802;1262;25306;-51
2023/08/25 10:09:18;;;;;;;;;;;;;;;32.97;47.56;101544.48;106797;1268;25305;-51
2023/08/25 10:11:45;;;;;;;;;;;;;;;32.96;47.53;101538.25;106638;1271;25517;-52
2023/08/25 10:14:12;;;;;;;;;;;;;;;32.99;47.65;101540.76;106855;1260;25334;-51
2023/08/25 10:16:49;;;;;;;;;;;;;;;33.02;47.56;101542.17;106816;1270;25393;-52
2023/08/25 10:19:23;;;;;;;;;;;;;;;33.03;47.78;101543.30;106550;1268;24188;-51
2023/08/25 10:21:51;;;;;;;;;;;;;;;33.01;47.94;101538.91;106770;1260;22499;-51
2023/08/25 10:24:19;;;;;;;;;;;;;;;32.99;48.19;101531.86;106845;1256;25411;-52
2023/08/25 10:26:46;;;;;;;;;;;;;;;33.00;48.51;101523.57;106660;1270;25367;-51
2023/08/25 10:29:16;;;;;;;;;;;;;;;33.03;48.68;101521.91;106789;1266;25313;-51
2023/08/25 10:31:46;;;;;;;;;;;;;;;33.06;48.64;101515.12;106864;1269;25316;-51
2023/08/25 10:34:30;;;;;;;;;;;;;;;33.10;48.80;101521.61;106831;1259;25321;-51
2023/08/25 10:37:04;;;;;;;;;;;;;;;33.13;49.13;101523.72;106817;1266;22519;-51
2023/08/25 10:39:50;;;;;;;;;;;;;;;33.17;49.39;101522.29;107342;1272;22556;-51
2023/08/25 10:42:30;;;;;;;;;;;;;;;33.22;49.36;101517.35;106816;1270;22510;-52
2023/08/25 10:45:04;;;;;;;;;;;;;;;33.29;49.30;101514.11;107610;1269;23258;-52
2023/08/25 10:47:41;;;;;;;;;;;;;;;33.34;49.34;101510.34;107578;1278;24144;-48
2023/08/25 10:50:13;;;;;;;;;;;;;;;33.38;49.39;101513.49;107360;1278;22512;-51
2023/08/25 10:52:44;;;;;;;;;;;;;;;33.42;49.33;101514.72;107388;1262;24519;-50
2023/08/25 10:55:32;;;;;;;;;;;;;;;33.45;49.11;101514.73;107578;1264;24383;-51
2023/08/25 10:58:05;;;;;;;;;;;;;;;33.48;49.07;101512.68;107300;1276;23200;-49
2023/08/25 11:00:43;;;;;;;;;;;;;;;33.48;49.16;101517.30;108242;1276;24311;-51
2023/08/25 11:06:57;;;;;;;;;;;;;;;33.45;49.07;101512.20;107790;1262;22972;-51
2023/08/25 11:09:44;;;;;;;;;;;;;;;33.40;48.90;101505.45;107830;1276;22506;-52
2023/08/25 11:12:17;;;;;;;;;;;;;;;33.33;48.84;101498.80;107925;1273;22833;-50
2023/08/25 11:15:26;;;;;;;;;;;;;;;33.21;49.51;101501.16;106801;1272;22527;-50
2023/08/25 11:17:54;;;;;;;;;;;;;;;33.16;49.84;101500.73;106576;1257;25400;-53
2023/08/25 11:20:21;;;;;;;;;;;;;;;33.16;50.07;101497.52;106397;1266;25596;-49
2023/08/25 11:22:51;;;;;;;;;;;;;;;33.16;50.21;101486.95;106519;1269;25427;-51
2023/08/25 11:25:38;;;;;;;;;;;;;;;33.15;50.26;101482.33;106609;1262;25469;-50
2023/08/25 11:28:05;;;;;;;;;;;;;;;33.15;50.56;101491.19;106372;1271;25392;-51
2023/08/25 11:30:36;;;;;;;;;;;;;;;33.16;50.68;101504.78;106652;1272;25487;-50
2023/08/25 11:33:03;;;;;;;;;;;;;;;33.17;50.82;101509.07;106527;1275;25380;-50
2023/08/25 11:35:30;;;;;;;;;;;;;;;33.22;50.87;101507.72;106803;1266;25453;-53
2023/08/25 11:37:57;;;;;;;;;;;;;;;33.28;50.66;101509.20;106817;1268;25306;-50
2023/08/25 11:40:24;;;;;;;;;;;;;;;33.32;50.24;101510.52;106885;1268;25211;-51
2023/08/25 11:42:51;;;;;;;;;;;;;;;33.34;50.27;101513.27;106800;1259;25483;-50
2023/08/25 11:45:18;;;;;;;;;;;;;;;33.32;50.41;101519.80;106837;1267;25313;-51
2023/08/25 11:47:45;;;;;;;;;;;;;;;33.28;50.30;101515.67;106786;1262;25316;-54
2023/08/25 11:50:12;;;;;;;;;;;;;;;33.22;50.23;101510.07;106884;1269;25315;-54
2023/08/25 11:52:39;;;;;;;;;;;;;;;33.12;50.21;101514.68;106717;1267;25306;-51
2023/08/25 11:55:06;;;;;;;;;;;;;;;33.04;50.49;101518.30;106534;1272;25468;-54
2023/08/25 11:57:36;;;;;;;;;;;;;;;32.92;50.56;101515.16;106890;1271;25391;-52
2023/08/25 12:00:05;;;;;;;;;;;;;;;32.82;51.00;101508.46;106898;1268;25344;-51
2023/08/25 12:02:33;;;;;;;;;;;;;;;32.73;51.35;101512.28;106696;1270;22623;-52
2023/08/25 12:05:03;;;;;;;;;;;;;;;32.66;51.56;101509.66;106829;1262;24247;-51
2023/08/25 12:07:31;;;;;;;;;;;;;;;32.60;51.94;101505.02;106652;1259;25249;-50
2023/08/25 12:09:58;;;;;;;;;;;;;;;32.57;52.06;101499.46;106350;1262;24162;-50
2023/08/25 12:12:28;;;;;;;;;;;;;;;32.54;52.21;101500.63;106588;1269;25389;-51
2023/08/25 12:14:55;;;;;;;;;;;;;;;32.52;52.33;101510.58;106886;1268;25306;-51
2023/08/25 12:17:26;;;;;;;;;;;;;;;32.51;52.43;101516.63;106956;1269;25296;-50
2023/08/25 12:19:54;;;;;;;;;;;;;;;32.50;52.42;101522.05;106871;1259;25303;-50
2023/08/25 12:22:22;;;;;;;;;;;;;;;32.50;52.28;101524.56;106795;1262;25369;-50
2023/08/25 12:24:49;;;;;;;;;;;;;;;32.50;52.25;101521.17;106742;1268;25498;-50
2023/08/25 12:27:17;;;;;;;;;;;;;;;32.50;52.16;101513.26;106850;1268;25337;-50
2023/08/25 12:29:44;;;;;;;;;;;;;;;32.50;52.18;101509.52;106750;1269;25363;-53
2023/08/25 12:32:11;;;;;;;;;;;;;;;32.50;52.22;101509.55;106661;1257;22630;-49
2023/08/25 12:34:38;;;;;;;;;;;;;;;32.48;52.11;101512.94;106572;1269;273775;-50